Time;durP1;ratioP1;P1;durP2;ratioP2;P2;SDS_P1;SDS_P2;PMS_P1;PMS_P2;Temp;Humidity;BMP_temperature;BMP_pressure;BME280_temperature;BME280_humidity;BME280_pressure;Samples;Min_cycle;Max_cycle;Signal;HPM_P1;HPM_P2
2023/02/06 00:00:56;;;;;;;34.78;3.35;;;;;;;-146.25;100.00;52479.72;2096880;28;39597;-71
2023/02/06 00:01:57;;;;;;;41.75;3.72;;;;;;;-146.25;100.00;52477.69;2096946;28;38062;-72
2023/02/06 00:02:59;;;;;;;35.00;3.30;;;;;;;-146.25;100.00;52471.59;2096905;28;42071;-71
2023/02/06 00:04:01;;;;;;;36.05;3.78;;;;;;;-146.25;100.00;52437.13;2096949;28;36059;-71
2023/02/06 00:05:03;;;;;;;33.60;3.00;;;;;;;-146.25;100.00;52449.31;2097300;28;36567;-72
2023/02/06 00:06:05;;;;;;;30.67;3.38;;;;;;;-146.25;100.00;52489.84;2096716;28;39825;-71
2023/02/06 00:07:06;;;;;;;36.03;3.15;;;;;;;-146.25;100.00;52459.44;2097065;28;36394;-72
2023/02/06 00:08:10;;;;;;;31.35;3.63;;;;;;;-146.25;100.00;52451.31;2096570;28;40167;-71
2023/02/06 00:09:14;;;;;;;32.42;3.08;;;;;;;-146.25;100.00;52416.84;2096716;28;40969;-72
2023/02/06 00:10:16;;;;;;;35.33;3.42;;;;;;;-146.25;100.00;52437.13;2096402;28;41544;-72
2023/02/06 00:11:20;;;;;;;36.45;3.55;;;;;;;-146.25;100.00;52473.63;2096860;28;42448;-72
2023/02/06 00:12:22;;;;;;;33.83;3.70;;;;;;;-146.25;100.00;52449.31;2096251;28;39908;-72
2023/02/06 00:13:23;;;;;;;34.28;3.80;;;;;;;-146.25;100.00;52485.81;2096783;28;35127;-71
2023/02/06 00:14:25;;;;;;;30.50;4.20;;;;;;;-146.25;100.00;52447.28;2096632;28;43488;-71
2023/02/06 00:15:27;;;;;;;36.17;4.82;;;;;;;-146.25;100.00;52487.81;2097438;28;20040;-71
2023/02/06 00:16:33;;;;;;;37.97;4.95;;;;;;;-146.25;100.00;52410.78;2097192;28;20143;-71
2023/02/06 00:17:37;;;;;;;32.75;4.25;;;;;;;-146.25;100.00;52445.25;2087733;28;38933;-71
2023/02/06 00:18:40;;;;;;;33.95;4.13;;;;;;;-146.25;100.00;52453.34;2088544;28;27275;-71
2023/02/06 00:19:45;;;;;;;26.92;4.68;;;;;;;-146.25;100.00;52469.56;2096851;28;38364;-71
2023/02/06 00:20:46;;;;;;;42.72;4.03;;;;;;;-146.25;100.00;52459.44;2096840;28;44302;-71
2023/02/06 00:21:48;;;;;;;38.22;3.88;;;;;;;-146.25;100.00;52459.44;2088712;28;20037;-71
2023/02/06 00:22:49;;;;;;;30.17;3.85;;;;;;;-146.25;100.00;52469.56;2087790;28;41319;-71
2023/02/06 00:23:57;;;;;;;41.97;4.30;;;;;;;-146.25;100.00;52441.19;2096709;28;37015;-71
2023/02/06 00:24:59;;;;;;;44.13;4.95;;;;;;;-146.25;100.00;52437.13;2096783;28;41435;-71
2023/02/06 00:26:00;;;;;;;44.17;3.85;;;;;;;-146.25;100.00;52465.53;2096711;28;38794;-71
2023/02/06 00:27:02;;;;;;;49.92;3.53;;;;;;;-146.25;100.00;52459.44;2096541;28;38752;-71
2023/02/06 00:28:04;;;;;;;39.35;4.43;;;;;;;-146.25;100.00;52451.31;2088320;28;20041;-71
2023/02/06 00:29:06;;;;;;;36.97;4.28;;;;;;;-146.25;100.00;52463.50;2088582;28;20041;-71
2023/02/06 00:30:09;;;;;;;34.97;3.60;;;;;;;-146.25;100.00;52455.38;2096809;28;20049;-70
2023/02/06 00:31:11;;;;;;;44.53;4.13;;;;;;;-146.25;100.00;52477.69;2096386;28;25121;-70
2023/02/06 00:32:13;;;;;;;35.90;3.70;;;;;;;-146.25;100.00;52463.50;2096974;28;28565;-70
2023/02/06 00:33:15;;;;;;;41.15;4.63;;;;;;;-146.25;100.00;52410.78;2096095;28;20164;-71
2023/02/06 00:34:16;;;;;;;40.55;4.88;;;;;;;-146.25;100.00;52457.41;2096877;28;29487;-70
2023/02/06 00:35:18;;;;;;;28.92;3.75;;;;;;;-146.25;100.00;52477.69;2087721;28;32789;-70
2023/02/06 00:36:20;;;;;;;35.25;3.90;;;;;;;-146.25;100.00;52473.63;2088791;28;20783;-70
2023/02/06 00:37:22;;;;;;;32.35;3.72;;;;;;;-146.25;100.00;52459.44;2096284;28;35868;-70
2023/02/06 00:38:23;;;;;;;39.05;3.15;;;;;;;-146.25;100.00;52445.25;2097387;28;25410;-70
2023/02/06 00:39:25;;;;;;;32.67;3.63;;;;;;;-146.25;100.00;52449.31;2097086;28;26141;-70
2023/02/06 00:40:27;;;;;;;39.67;3.47;;;;;;;-146.25;100.00;52437.13;2087144;28;37127;-69
2023/02/06 00:41:29;;;;;;;38.58;4.25;;;;;;;-146.25;100.00;52489.84;2088537;28;20930;-70
2023/02/06 00:42:33;;;;;;;34.33;3.80;;;;;;;-146.25;100.00;52467.56;2087691;28;32258;-69
2023/02/06 00:43:35;;;;;;;31.75;3.90;;;;;;;-146.25;100.00;52467.56;2087942;28;30517;-70
2023/02/06 00:44:37;;;;;;;34.38;3.35;;;;;;;-146.25;100.00;52455.38;2096526;28;35140;-70
2023/02/06 00:45:38;;;;;;;38.13;4.18;;;;;;;-146.25;100.00;52435.09;2096540;28;35205;-69
2023/02/06 00:46:40;;;;;;;36.58;4.05;;;;;;;-146.25;100.00;52429.03;2097377;28;20041;-69
2023/02/06 00:47:42;;;;;;;40.15;3.42;;;;;;;-146.25;100.00;52471.59;2096240;28;37141;-70
2023/02/06 00:48:44;;;;;;;35.30;3.58;;;;;;;-146.25;100.00;52449.31;2087959;28;28597;-68
2023/02/06 00:49:45;;;;;;;32.10;4.03;;;;;;;-146.25;100.00;52481.75;2079368;28;31764;-69
2023/02/06 00:50:49;;;;;;;34.97;3.80;;;;;;;-146.25;100.00;52457.41;2087932;28;34819;-69
2023/02/06 00:51:50;;;;;;;33.33;3.70;;;;;;;-146.25;100.00;52469.56;2097027;28;20091;-68
2023/02/06 00:52:52;;;;;;;30.83;4.00;;;;;;;-146.25;100.00;52429.03;2087241;28;35171;-68
2023/02/06 00:53:54;;;;;;;33.80;3.65;;;;;;;-146.25;100.00;52465.53;2087770;28;30701;-69
2023/02/06 00:54:55;;;;;;;41.90;4.28;;;;;;;-146.25;100.00;52463.50;2096996;28;29967;-69
2023/02/06 00:56:00;;;;;;;34.83;4.00;;;;;;;-146.25;100.00;52443.22;2087404;28;32255;-69
2023/02/06 00:57:02;;;;;;;35.45;4.18;;;;;;;-146.25;100.00;52451.31;2080862;28;20050;-68
2023/02/06 00:58:03;;;;;;;36.53;4.57;;;;;;;-146.25;100.00;52449.31;2087952;28;34002;-68
2023/02/06 00:59:07;;;;;;;37.88;4.55;;;;;;;-146.25;100.00;52433.06;2096528;28;40695;-68
2023/02/06 01:00:10;;;;;;;32.10;3.83;;;;;;;-146.25;100.00;52469.56;2096570;28;29758;-68
2023/02/06 01:01:11;;;;;;;36.42;4.20;;;;;;;-146.25;100.00;52445.25;2096694;28;31741;-68
2023/02/06 01:02:16;;;;;;;36.38;4.32;;;;;;;-146.25;100.00;52500.00;2087873;28;20049;-68
2023/02/06 01:03:17;;;;;;;51.97;5.28;;;;;;;-146.25;100.00;52453.34;2087363;28;34466;-68
2023/02/06 01:04:19;;;;;;;31.38;3.95;;;;;;;-146.25;100.00;52443.22;2096691;28;24669;-69
2023/02/06 01:05:21;;;;;;;36.80;3.70;;;;;;;-146.25;100.00;52437.13;2088442;28;24683;-68
2023/02/06 01:06:23;;;;;;;39.58;4.22;;;;;;;-146.25;100.00;52447.28;2088066;28;20054;-68
2023/02/06 01:07:25;;;;;;;32.28;4.10;;;;;;;-146.25;100.00;52445.25;2088199;28;20091;-68
2023/02/06 01:08:26;;;;;;;26.58;3.92;;;;;;;-146.25;100.00;52465.53;2079076;28;24765;-68
2023/02/06 01:09:28;;;;;;;34.10;4.35;;;;;;;-146.25;100.00;52451.31;2087584;28;30990;-68
2023/02/06 01:10:31;;;;;;;27.88;3.83;;;;;;;-146.25;100.00;52424.97;2097166;28;20966;-68
2023/02/06 01:11:34;;;;;;;45.17;4.00;;;;;;;-146.25;100.00;52461.47;2080047;28;20094;-68
2023/02/06 01:12:38;;;;;;;39.35;4.00;;;;;;;-146.25;100.00;52404.69;2079402;28;42369;-68
2023/02/06 01:13:40;;;;;;;29.25;3.72;;;;;;;-146.25;100.00;52487.81;2087620;28;28199;-68
2023/02/06 01:14:42;;;;;;;39.47;4.10;;;;;;;-146.25;100.00;52455.38;2071521;28;29014;-68
2023/02/06 01:15:45;;;;;;;34.33;3.72;;;;;;;-146.25;100.00;52455.38;2080715;28;20160;-68
2023/02/06 01:16:47;;;;;;;32.53;3.88;;;;;;;-146.25;100.00;52459.44;2087721;28;30724;-67
2023/02/06 01:17:48;;;;;;;36.05;3.97;;;;;;;-146.25;100.00;52447.28;2071427;28;36305;-68
2023/02/06 01:18:50;;;;;;;27.60;3.75;;;;;;;-146.25;100.00;52461.47;2079385;28;30781;-66
2023/02/06 01:19:52;;;;;;;41.80;4.32;;;;;;;-146.25;100.00;52457.41;2096710;28;31436;-67
2023/02/06 01:20:53;;;;;;;25.63;3.05;;;;;;;-146.25;100.00;52479.72;2096544;28;32712;-67
2023/02/06 01:21:55;;;;;;;26.98;3.53;;;;;;;-146.25;100.00;52459.44;2096716;28;35751;-67
2023/02/06 01:22:57;;;;;;;29.83;3.78;;;;;;;-146.25;100.00;52477.69;2096467;28;28187;-67
2023/02/06 01:24:01;;;;;;;34.72;4.07;;;;;;;-146.25;100.00;52459.44;2096720;28;33380;-67
2023/02/06 01:25:04;;;;;;;43.67;4.35;;;;;;;-146.25;100.00;52449.31;2087052;28;37745;-66
2023/02/06 01:26:09;;;;;;;27.48;3.83;;;;;;;-146.25;100.00;52495.94;2088173;28;23024;-66
2023/02/06 01:27:10;;;;;;;31.15;3.55;;;;;;;-146.25;100.00;52437.13;2079719;28;37844;-67
2023/02/06 01:28:12;;;;;;;35.72;3.42;;;;;;;-146.25;100.00;52471.59;2078784;28;36208;-66
2023/02/06 01:29:14;;;;;;;34.35;3.53;;;;;;;-146.25;100.00;52431.06;2087506;28;29670;-66
2023/02/06 01:30:15;;;;;;;27.05;3.83;;;;;;;-146.25;100.00;52441.19;2095942;28;34501;-66
2023/02/06 01:31:23;;;;;;;28.63;3.35;;;;;;;-146.25;100.00;52469.56;2095720;28;38677;-66
2023/02/06 01:32:27;;;;;;;37.70;4.45;;;;;;;-146.25;100.00;52449.31;2096318;28;38381;-66
2023/02/06 01:33:31;;;;;;;32.65;3.92;;;;;;;-146.25;100.00;52489.84;2096246;28;31021;-68
2023/02/06 01:34:32;;;;;;;29.85;3.47;;;;;;;-146.25;100.00;52475.66;2087398;28;29279;-67
2023/02/06 01:35:35;;;;;;;31.23;4.03;;;;;;;-146.25;100.00;52477.69;2079726;28;20809;-66
2023/02/06 01:36:37;;;;;;;41.92;5.00;;;;;;;-146.25;100.00;52473.63;2088019;28;24555;-65
2023/02/06 01:37:40;;;;;;;28.98;3.78;;;;;;;-146.25;100.00;52461.47;2096338;28;33151;-66
2023/02/06 01:38:45;;;;;;;24.15;2.72;;;;;;;-146.25;100.00;52483.78;2096651;28;20048;-65
2023/02/06 01:39:46;;;;;;;28.83;3.58;;;;;;;-146.25;100.00;52473.63;2087284;28;38588;-65
2023/02/06 01:40:48;;;;;;;40.60;4.45;;;;;;;-146.25;100.00;52465.53;2080152;28;20217;-66
2023/02/06 01:41:50;;;;;;;36.78;4.03;;;;;;;-146.25;100.00;52467.56;2087912;28;20045;-65
2023/02/06 01:42:52;;;;;;;35.67;3.80;;;;;;;-146.25;100.00;52471.59;2096183;28;29978;-68
2023/02/06 01:44:23;;;;;;;29.70;4.25;;;;;;;-146.25;100.00;52422.94;2087300;28;28330;-65
2023/02/06 01:45:25;;;;;;;30.48;3.20;;;;;;;-146.25;100.00;52473.63;2091878;28;34124;-65
2023/02/06 01:46:26;;;;;;;34.08;3.72;;;;;;;-146.25;100.00;52467.56;2087364;28;34082;-65
2023/02/06 01:47:30;;;;;;;34.38;3.63;;;;;;;-146.25;100.00;52483.78;2087517;28;37981;-65
2023/02/06 01:48:45;;;;;;;21.23;2.60;;;;;;;-146.25;100.00;52429.03;2096233;28;36160;-65
2023/02/06 01:49:49;;;;;;;35.35;3.38;;;;;;;-146.25;100.00;52481.75;2087238;28;33962;-65
2023/02/06 01:50:56;;;;;;;31.20;3.78;;;;;;;-146.25;100.00;52439.16;2080362;28;38517;-65
2023/02/06 01:52:22;;;;;;;26.50;3.67;;;;;;;-146.25;100.00;52469.56;2080097;28;39213;-65
2023/02/06 01:53:27;;;;;;;18.55;2.95;;;;;;;-146.25;100.00;52479.72;2084397;28;20042;-65
2023/02/06 01:54:28;;;;;;;19.73;2.55;;;;;;;-146.25;100.00;52457.41;2087171;28;38687;-64
2023/02/06 01:55:33;;;;;;;36.03;3.80;;;;;;;-146.25;100.00;52465.53;2079144;28;31349;-64
2023/02/06 01:56:46;;;;;;;32.53;3.20;;;;;;;-146.25;100.00;52489.84;2079522;28;31814;-65
2023/02/06 01:57:48;;;;;;;31.30;3.65;;;;;;;-146.25;100.00;52459.44;2089162;28;20885;-64
2023/02/06 01:58:58;;;;;;;38.67;3.47;;;;;;;-146.25;100.00;52481.75;2087596;28;21099;-64
2023/02/06 02:00:07;;;;;;;26.88;3.15;;;;;;;-146.25;100.00;52477.69;2088199;28;20791;-65
2023/02/06 02:01:17;;;;;;;24.85;3.00;;;;;;;-146.25;100.00;52463.50;2081359;28;20081;-64
2023/02/06 02:02:21;;;;;;;27.30;3.67;;;;;;;-146.25;100.00;52457.41;2080998;28;35639;-64
2023/02/06 02:03:24;;;;;;;45.28;5.22;;;;;;;-146.25;100.00;52429.03;2088769;28;20033;-64
2023/02/06 02:04:29;;;;;;;32.47;4.35;;;;;;;-146.25;100.00;52457.41;2087787;28;20819;-64
2023/02/06 02:05:32;;;;;;;35.15;4.25;;;;;;;-146.25;100.00;52459.44;2080145;28;36415;-64
2023/02/06 02:06:34;;;;;;;33.58;4.00;;;;;;;-146.25;100.00;52461.47;2080000;28;32825;-64
2023/02/06 02:07:46;;;;;;;41.88;4.97;;;;;;;-146.25;100.00;52433.06;2087788;28;35255;-64
2023/02/06 02:08:52;;;;;;;29.63;4.32;;;;;;;-146.25;100.00;52487.81;2087046;28;39403;-64
2023/02/06 02:09:54;;;;;;;36.15;3.63;;;;;;;-146.25;100.00;52477.69;2082035;28;20042;-64
2023/02/06 02:11:00;;;;;;;30.20;3.63;;;;;;;-146.25;100.00;52445.25;2087195;28;31014;-64
2023/02/06 02:12:03;;;;;;;27.10;3.40;;;;;;;-146.25;100.00;52457.41;2088320;28;20103;-64
2023/02/06 02:13:05;;;;;;;27.50;3.03;;;;;;;-146.25;100.00;52514.19;2087815;28;26954;-64
2023/02/06 02:14:11;;;;;;;43.55;4.07;;;;;;;-146.25;100.00;52485.81;2087894;28;25470;-64
2023/02/06 02:15:13;;;;;;;28.60;3.92;;;;;;;-146.25;100.00;52461.47;2072009;28;20151;-64
2023/02/06 02:16:40;;;;;;;41.22;4.10;;;;;;;-146.25;100.00;52487.81;2079826;28;39124;-64
2023/02/06 02:18:24;;;;;;;34.00;3.85;;;;;;;-146.25;100.00;52465.53;2088004;28;29119;-64
2023/02/06 02:20:04;;;;;;;39.45;4.00;;;;;;;-146.25;100.00;52463.50;2067550;28;21741;-64
2023/02/06 02:21:57;;;;;;;38.38;4.28;;;;;;;-146.25;100.00;52469.56;2089263;28;20697;-65
2023/02/06 02:23:40;;;;;;;44.88;3.85;;;;;;;-146.25;100.00;52469.56;2087093;28;36302;-64
2023/02/06 02:25:33;;;;;;;36.55;3.90;;;;;;;-146.25;100.00;52461.47;2085593;28;20041;-64
2023/02/06 02:27:13;;;;;;;37.70;3.75;;;;;;;-146.25;100.00;52497.97;2087536;28;28259;-64
2023/02/06 02:28:32;;;;;;;54.65;4.32;;;;;;;-146.25;100.00;52433.06;2096132;28;33181;-64
2023/02/06 02:29:43;;;;;;;49.08;4.28;;;;;;;-146.25;100.00;52445.25;2095511;28;29074;-66
2023/02/06 02:31:09;;;;;;;;;;;;;;;-146.25;100.00;52441.19;2096513;28;30356;-64
2023/02/06 02:32:42;;;;;;;58.75;5.22;;;;;;;-146.25;100.00;52455.38;2096670;28;19998;-64
2023/02/06 02:34:35;;;;;;;56.42;5.65;;;;;;;-146.25;100.00;52469.56;2087836;28;20037;-64
2023/02/06 02:36:19;;;;;;;50.70;4.35;;;;;;;-146.25;100.00;52465.53;2087225;28;20060;-65
2023/02/06 02:38:02;;;;;;;39.85;4.60;;;;;;;-146.25;100.00;52449.31;2068525;28;20200;-64
2023/02/06 02:39:45;;;;;;;59.13;5.20;;;;;;;-146.25;100.00;52463.50;2071439;28;20043;-64
2023/02/06 02:41:11;;;;;;;51.65;5.05;;;;;;;-146.25;100.00;52441.19;2077346;28;20046;-64
2023/02/06 02:42:31;;;;;;;56.60;5.60;;;;;;;-146.25;100.00;52465.53;2072352;28;28162;-64
2023/02/06 02:44:25;;;;;;;54.33;4.78;;;;;;;-146.25;100.00;52473.63;2066307;28;21448;-64
2023/02/06 02:45:32;;;;;;;44.22;4.85;;;;;;;-146.25;100.00;52459.44;2056355;28;20043;-64
2023/02/06 02:46:51;;;;;;;50.30;4.40;;;;;;;-146.25;100.00;52459.44;2073249;28;21054;-64
2023/02/06 02:48:27;;;;;;;68.00;5.57;;;;;;;-146.25;100.00;52453.34;2074981;28;37824;-64
2023/02/06 02:49:33;;;;;;;51.60;5.07;;;;;;;-146.25;100.00;52477.69;2067429;28;20148;-64
2023/02/06 02:50:39;;;;;;;46.83;3.77;;;;;;;-146.25;100.00;52506.06;2077905;28;20955;-64
2023/02/06 02:51:44;;;;;;;54.45;4.40;;;;;;;-146.25;100.00;52475.66;2063867;28;26894;-64
2023/02/06 02:52:45;;;;;;;37.58;4.57;;;;;;;-146.25;100.00;52459.44;2057035;28;20909;-64
2023/02/06 02:53:47;;;;;;;64.30;5.32;;;;;;;-146.25;100.00;52453.34;2056766;28;24921;-64
2023/02/06 02:54:49;;;;;;;32.45;4.03;;;;;;;-146.25;100.00;52467.56;2056448;28;20055;-64
2023/02/06 02:55:51;;;;;;;51.67;5.40;;;;;;;-146.25;100.00;52451.31;2064863;28;20043;-64
2023/02/06 02:57:05;;;;;;;42.45;3.67;;;;;;;-146.25;100.00;52485.81;2080619;28;20049;-65
2023/02/06 02:58:12;;;;;;;46.55;5.10;;;;;;;-146.25;100.00;52463.50;2072140;28;28696;-64
2023/02/06 02:59:22;;;;;;;55.22;5.45;;;;;;;-146.25;100.00;52465.53;2066905;28;20169;-64
2023/02/06 03:00:29;;;;;;;44.15;4.72;;;;;;;-146.25;100.00;52461.47;2061278;28;20050;-64
2023/02/06 03:01:41;;;;;;;47.25;4.63;;;;;;;-146.25;100.00;52467.56;2074702;28;25276;-64
2023/02/06 03:02:47;;;;;;;46.47;4.07;;;;;;;-146.25;100.00;52422.94;2090166;28;21335;-65
2023/02/06 03:03:57;;;;;;;42.25;4.25;;;;;;;-146.25;100.00;52451.31;2096903;28;35913;-66
2023/02/06 03:05:04;;;;;;;48.28;5.18;;;;;;;-146.25;100.00;52471.59;2088001;28;20046;-65
2023/02/06 03:06:27;;;;;;;36.78;4.25;;;;;;;-146.25;100.00;52439.16;2090477;28;20057;-65
2023/02/06 03:07:41;;;;;;;45.97;4.15;;;;;;;-146.25;100.00;52437.13;2088718;28;20033;-64
2023/02/06 03:09:03;;;;;;;48.03;3.75;;;;;;;-146.25;100.00;52481.75;2081820;28;20061;-66
2023/02/06 03:10:23;;;;;;;35.50;3.58;;;;;;;-146.25;100.00;52441.19;2083957;28;20854;-64
2023/02/06 03:11:26;;;;;;;52.45;4.80;;;;;;;-146.25;100.00;52477.69;2074857;28;23430;-64
2023/02/06 03:12:44;;;;;;;43.92;5.18;;;;;;;-146.25;100.00;52449.31;2066627;28;20089;-64
2023/02/06 03:14:04;;;;;;;44.28;5.38;;;;;;;-146.25;100.00;52453.34;2084330;28;36311;-64
2023/02/06 03:15:16;;;;;;;43.65;4.38;;;;;;;-146.25;100.00;52461.47;2088671;28;20052;-64
2023/02/06 03:16:52;;;;;;;40.65;4.10;;;;;;;-146.25;100.00;52461.47;2090350;28;28738;-65
2023/02/06 03:18:05;;;;;;;39.35;3.95;;;;;;;-146.25;100.00;52475.66;2080800;28;20137;-64
2023/02/06 03:19:28;;;;;;;36.38;4.30;;;;;;;-146.25;100.00;52461.47;2087253;28;20052;-65
2023/02/06 03:20:31;;;;;;;29.25;4.28;;;;;;;-146.25;100.00;52479.72;2089271;28;20045;-65
2023/02/06 03:21:36;;;;;;;40.15;4.38;;;;;;;-146.25;100.00;52449.31;2071414;28;37649;-64
2023/02/06 03:22:42;;;;;;;38.80;4.13;;;;;;;-146.25;100.00;52469.56;2081742;28;39246;-65
2023/02/06 03:23:48;;;;;;;37.70;3.85;;;;;;;-146.25;100.00;52453.34;2088943;28;21551;-65
2023/02/06 03:24:52;;;;;;;31.58;4.28;;;;;;;-146.25;100.00;52437.13;2081367;28;44016;-65
2023/02/06 03:25:58;;;;;;;29.60;4.00;;;;;;;-146.25;100.00;52485.81;2089132;28;38177;-64
2023/02/06 03:27:06;;;;;;;40.22;4.25;;;;;;;-146.25;100.00;52449.31;2088542;28;37386;-65
2023/02/06 03:28:22;;;;;;;32.88;4.03;;;;;;;-146.25;100.00;52473.63;2089572;28;38898;-64
2023/02/06 03:29:26;;;;;;;27.02;3.72;;;;;;;-146.25;100.00;52465.53;2088627;28;36377;-64
2023/02/06 03:30:30;;;;;;;20.48;3.13;;;;;;;-146.25;100.00;52463.50;2089726;28;43681;-64
2023/02/06 03:31:43;;;;;;;27.55;4.10;;;;;;;-146.25;100.00;52422.94;2096826;28;20029;-64
2023/02/06 03:32:52;;;;;;;28.95;3.55;;;;;;;-146.25;100.00;52459.44;2090417;28;41421;-65
2023/02/06 03:34:07;;;;;;;41.10;4.63;;;;;;;-146.25;100.00;52469.56;2096289;28;38744;-65
2023/02/06 03:35:17;;;;;;;39.22;4.25;;;;;;;-146.25;100.00;52473.63;2088501;28;40864;-64
2023/02/06 03:36:19;;;;;;;33.22;3.40;;;;;;;-146.25;100.00;52473.63;2091451;28;44541;-64
2023/02/06 03:37:22;;;;;;;29.92;3.83;;;;;;;-146.25;100.00;52485.81;2088653;28;34985;-65
2023/02/06 03:38:27;;;;;;;31.63;4.13;;;;;;;-146.25;100.00;52455.38;2088383;28;40423;-64
2023/02/06 03:39:29;;;;;;;30.13;3.80;;;;;;;-146.25;100.00;52463.50;2087760;28;39008;-65
2023/02/06 03:40:31;;;;;;;44.13;5.50;;;;;;;-146.25;100.00;52465.53;2089204;28;20037;-65
2023/02/06 03:41:37;;;;;;;30.13;3.90;;;;;;;-146.25;100.00;52461.47;2088171;28;41414;-64
2023/02/06 03:42:49;;;;;;;23.02;3.58;;;;;;;-146.25;100.00;52483.78;2080599;28;39086;-64
2023/02/06 03:43:55;;;;;;;33.13;3.78;;;;;;;-146.25;100.00;52457.41;2081825;28;39662;-65
2023/02/06 03:45:06;;;;;;;36.13;3.97;;;;;;;-146.25;100.00;52429.03;2081892;28;20038;-64
2023/02/06 03:46:11;;;;;;;28.10;3.38;;;;;;;-146.25;100.00;52489.84;2089821;28;39928;-65
2023/02/06 03:47:16;;;;;;;27.08;3.50;;;;;;;-146.25;100.00;52502.03;2088070;28;41501;-65
2023/02/06 03:48:30;;;;;;;32.22;3.45;;;;;;;-146.25;100.00;52471.59;2080456;28;40213;-64
2023/02/06 03:49:34;;;;;;;26.23;3.83;;;;;;;-146.25;100.00;52477.69;2081982;28;37070;-64
2023/02/06 03:50:40;;;;;;;29.70;3.95;;;;;;;-146.25;100.00;52459.44;2080970;28;35963;-64
2023/02/06 03:52:05;;;;;;;30.30;3.88;;;;;;;-146.25;100.00;52461.47;2080914;28;38217;-64
2023/02/06 03:53:10;;;;;;;29.02;3.70;;;;;;;-146.25;100.00;52473.63;2082715;28;40160;-64
2023/02/06 03:54:17;;;;;;;38.88;4.88;;;;;;;-146.25;100.00;52447.28;2082665;28;41187;-64
2023/02/06 03:55:23;;;;;;;32.00;4.53;;;;;;;-146.25;100.00;52485.81;2082226;28;20049;-64
2023/02/06 03:56:34;;;;;;;31.60;4.85;;;;;;;-146.25;100.00;52473.63;2081138;28;41504;-64
2023/02/06 03:57:41;;;;;;;29.98;4.57;;;;;;;-146.25;100.00;52455.38;2081628;28;35598;-64
2023/02/06 03:58:43;;;;;;;23.13;3.67;;;;;;;-146.25;100.00;52471.59;2081786;28;20895;-64
2023/02/06 03:59:46;;;;;;;28.02;4.15;;;;;;;-146.25;100.00;52473.63;2089161;28;41173;-64
2023/02/06 04:00:47;;;;;;;27.17;4.03;;;;;;;-146.25;100.00;52506.06;2088388;28;36215;-64
2023/02/06 04:01:56;;;;;;;34.00;4.35;;;;;;;-146.25;100.00;52479.72;2080791;28;20030;-64
2023/02/06 04:03:01;;;;;;;27.75;4.47;;;;;;;-146.25;100.00;52465.53;2072365;28;36334;-64
2023/02/06 04:04:03;;;;;;;31.98;5.03;;;;;;;-146.25;100.00;52469.56;2080911;28;36748;-64
2023/02/06 04:05:06;;;;;;;27.52;5.00;;;;;;;-146.25;100.00;52451.31;2096321;28;40320;-64
2023/02/06 04:06:09;;;;;;;25.33;4.60;;;;;;;-146.25;100.00;52445.25;2097899;28;20095;-65
2023/02/06 04:07:23;;;;;;;37.72;7.05;;;;;;;-146.25;100.00;52463.50;2096681;28;38275;-64
2023/02/06 04:08:25;;;;;;;52.47;9.30;;;;;;;-146.25;100.00;52487.81;2088962;28;20045;-64
2023/02/06 04:09:27;;;;;;;48.63;8.85;;;;;;;-146.25;100.00;52453.34;2088844;28;37997;-64
2023/02/06 04:10:29;;;;;;;49.63;11.60;;;;;;;-146.25;100.00;52479.72;2096745;28;43753;-64
2023/02/06 04:11:30;;;;;;;46.30;11.45;;;;;;;-146.25;100.00;52457.41;2088292;28;20054;-64
2023/02/06 04:12:32;;;;;;;56.80;14.65;;;;;;;-146.25;100.00;52445.25;2087813;28;41101;-64
2023/02/06 04:13:34;;;;;;;44.80;12.32;;;;;;;-146.25;100.00;52439.16;2096622;28;37572;-64
2023/02/06 04:14:36;;;;;;;46.25;10.15;;;;;;;-146.25;100.00;52469.56;2097076;28;36671;-64
2023/02/06 04:15:37;;;;;;;42.60;9.23;;;;;;;-146.25;100.00;52493.91;2096498;28;38902;-64
2023/02/06 04:16:39;;;;;;;36.38;9.85;;;;;;;-146.25;100.00;52453.34;2097140;28;20045;-64
2023/02/06 04:17:43;;;;;;;39.88;10.35;;;;;;;-146.25;100.00;52483.78;2095911;28;37999;-64
2023/02/06 04:19:02;;;;;;;45.47;10.68;;;;;;;-146.25;100.00;52453.34;2096056;28;41868;-64
2023/02/06 04:20:05;;;;;;;45.65;9.85;;;;;;;-146.25;100.00;52449.31;2096495;28;37345;-64
2023/02/06 04:21:07;;;;;;;40.65;9.93;;;;;;;-146.25;100.00;52461.47;2096496;28;42070;-64
2023/02/06 04:22:13;;;;;;;40.90;9.07;;;;;;;-146.25;100.00;52457.41;2097644;28;20076;-64
2023/02/06 04:23:18;;;;;;;33.20;9.48;;;;;;;-146.25;100.00;52473.63;2097195;28;39103;-64
2023/02/06 04:24:20;;;;;;;34.70;8.27;;;;;;;-146.25;100.00;52510.13;2096527;28;43153;-64
2023/02/06 04:25:21;;;;;;;30.80;7.60;;;;;;;-146.25;100.00;52469.56;2096852;28;38891;-64
2023/02/06 04:26:23;;;;;;;38.92;7.25;;;;;;;-146.25;100.00;52469.56;2097306;28;20045;-64
2023/02/06 04:27:25;;;;;;;20.70;5.00;;;;;;;-146.25;100.00;52481.75;2096958;28;40302;-64
2023/02/06 04:28:27;;;;;;;30.85;5.47;;;;;;;-146.25;100.00;52473.63;2096354;28;40087;-64
2023/02/06 04:29:29;;;;;;;28.67;5.38;;;;;;;-146.25;100.00;52453.34;2095271;28;43360;-64
2023/02/06 04:30:33;;;;;;;25.75;4.85;;;;;;;-146.25;100.00;52469.56;2096512;28;39017;-64
2023/02/06 04:31:35;;;;;;;28.65;4.53;;;;;;;-146.25;100.00;52475.66;2096335;28;38405;-64
2023/02/06 04:32:37;;;;;;;34.95;5.40;;;;;;;-146.25;100.00;52473.63;2096330;28;40215;-64
2023/02/06 04:33:41;;;;;;;35.85;5.05;;;;;;;-146.25;100.00;52491.88;2097318;28;20814;-64
2023/02/06 04:34:43;;;;;;;24.73;4.72;;;;;;;-146.25;100.00;52473.63;2095256;28;40146;-64
2023/02/06 04:35:46;;;;;;;36.70;5.03;;;;;;;-146.25;100.00;52500.00;2096374;28;38865;-64
2023/02/06 04:36:48;;;;;;;23.98;4.30;;;;;;;-146.25;100.00;52473.63;2096146;28;40062;-64
2023/02/06 04:37:52;;;;;;;34.13;3.92;;;;;;;-146.25;100.00;52465.53;2096546;28;42707;-64
2023/02/06 04:38:53;;;;;;;24.98;3.90;;;;;;;-146.25;100.00;52477.69;2095876;28;39490;-63
2023/02/06 04:39:55;;;;;;;31.10;4.15;;;;;;;-146.25;100.00;52479.72;2087585;28;40164;-64
2023/02/06 04:41:02;;;;;;;33.05;4.07;;;;;;;-146.25;100.00;52418.88;2077842;28;38118;-63
2023/02/06 04:42:05;;;;;;;33.03;4.32;;;;;;;-146.25;100.00;52441.19;2080428;28;36261;-64
2023/02/06 04:43:07;;;;;;;32.63;4.22;;;;;;;-146.25;100.00;52451.31;2088046;28;40016;-64
2023/02/06 04:44:09;;;;;;;29.83;4.13;;;;;;;-146.25;100.00;52437.13;2088028;28;39343;-64
2023/02/06 04:45:11;;;;;;;34.45;3.97;;;;;;;-146.25;100.00;52449.31;2088489;28;34952;-64
2023/02/06 04:46:13;;;;;;;32.40;4.13;;;;;;;-146.25;100.00;52453.34;2088024;28;42685;-64
2023/02/06 04:47:17;;;;;;;30.75;4.03;;;;;;;-146.25;100.00;52510.13;2089015;28;20088;-63
2023/02/06 04:48:19;;;;;;;28.60;3.70;;;;;;;-146.25;100.00;52451.31;2088210;28;40607;-64
2023/02/06 04:49:21;;;;;;;30.15;4.10;;;;;;;-146.25;100.00;52473.63;2088242;28;40592;-64
2023/02/06 04:50:23;;;;;;;35.78;4.38;;;;;;;-146.25;100.00;52483.78;2088173;28;38688;-64
2023/02/06 04:51:25;;;;;;;24.60;3.28;;;;;;;-146.25;100.00;52493.91;2088002;28;38440;-64
2023/02/06 04:52:26;;;;;;;32.28;4.20;;;;;;;-146.25;100.00;52445.25;2088186;28;36428;-64
2023/02/06 04:53:28;;;;;;;32.15;3.70;;;;;;;-146.25;100.00;52477.69;2078885;28;38626;-63
2023/02/06 04:54:30;;;;;;;28.52;3.72;;;;;;;-146.25;100.00;52465.53;2079507;28;40049;-64
2023/02/06 04:55:34;;;;;;;25.52;3.83;;;;;;;-146.25;100.00;52431.06;2088271;28;42424;-64
2023/02/06 04:56:36;;;;;;;29.73;3.38;;;;;;;-146.25;100.00;52481.75;2088266;28;37301;-64
2023/02/06 04:57:38;;;;;;;28.25;3.75;;;;;;;-146.25;100.00;52465.53;2088300;28;38247;-63
2023/02/06 04:58:40;;;;;;;32.40;3.92;;;;;;;-146.25;100.00;52485.81;2088803;28;20140;-63
2023/02/06 04:59:41;;;;;;;30.92;4.45;;;;;;;-146.25;100.00;52457.41;2087980;28;39295;-63
2023/02/06 05:00:43;;;;;;;40.75;5.22;;;;;;;-146.25;100.00;52441.19;2087552;28;38692;-63
2023/02/06 05:01:45;;;;;;;53.13;4.70;;;;;;;-146.25;100.00;52475.66;2088477;28;27275;-63